Time;durP1;ratioP1;P1;durP2;ratioP2;P2;SDS_P1;SDS_P2;PMS_P1;PMS_P2;Temp;Humidity;BMP_temperature;BMP_pressure;BME280_temperature;BME280_humidity;BME280_pressure;Samples;Min_cycle;Max_cycle;Signal;HPM_P1;HPM_P2
2022/04/12 00:00:38;;;;;;;9.37;6.27;;;2.80;99.90;;;;;;5008365;28;20274;-69
2022/04/12 00:03:06;;;;;;;8.77;6.73;;;2.80;99.90;;;;;;5026310;28;20210;-69
2022/04/12 00:05:32;;;;;;;9.77;6.60;;;2.70;99.90;;;;;;5026003;28;20207;-68
2022/04/12 00:07:58;;;;;;;10.03;7.10;;;2.70;99.90;;;;;;5024453;28;20186;-69
2022/04/12 00:10:24;;;;;;;13.97;7.27;;;2.70;99.90;;;;;;5025971;28;20688;-69
2022/04/12 00:12:50;;;;;;;11.60;7.20;;;2.70;99.90;;;;;;5025646;28;20206;-68
2022/04/12 00:15:16;;;;;;;8.17;6.40;;;2.80;99.90;;;;;;5026275;28;20179;-68
2022/04/12 00:20:29;;;;;;;9.17;6.40;;;2.70;99.90;;;;;;5026091;28;20185;-68
2022/04/12 00:22:56;;;;;;;8.47;6.30;;;2.60;99.90;;;;;;5025776;28;20218;-68
2022/04/12 00:25:22;;;;;;;8.20;6.30;;;2.70;99.90;;;;;;5025813;28;20184;-69
2022/04/12 00:27:53;;;;;;;9.57;7.07;;;2.80;99.90;;;;;;5024735;28;20250;-68
2022/04/12 00:30:19;;;;;;;8.77;6.73;;;2.80;99.90;;;;;;5007739;28;20249;-69
2022/04/12 00:32:46;;;;;;;9.50;6.63;;;2.80;99.90;;;;;;5025439;28;20186;-67
2022/04/12 00:35:12;;;;;;;8.63;6.47;;;2.70;99.90;;;;;;5025380;28;20649;-68
2022/04/12 00:37:38;;;;;;;10.00;6.40;;;2.70;99.90;;;;;;5022982;28;20198;-69
2022/04/12 00:40:05;;;;;;;9.77;6.30;;;2.70;99.90;;;;;;5025484;28;20229;-68
2022/04/12 00:42:31;;;;;;;8.17;6.17;;;2.60;99.90;;;;;;5007435;28;20305;-69
2022/04/12 00:44:57;;;;;;;8.93;5.93;;;2.70;99.90;;;;;;5025920;28;20215;-69
2022/04/12 00:47:23;;;;;;;9.03;6.13;;;2.70;99.90;;;;;;5024388;28;20293;-69
2022/04/12 00:49:49;;;;;;;9.17;6.00;;;2.80;99.90;;;;;;5025412;28;20752;-69
2022/04/12 00:52:16;;;;;;;11.07;6.30;;;2.80;99.90;;;;;;5025022;28;20553;-69
2022/04/12 00:54:42;;;;;;;7.87;5.60;;;2.80;99.90;;;;;;5025636;28;20205;-68
2022/04/12 00:57:08;;;;;;;8.27;5.20;;;2.70;99.90;;;;;;5024914;28;20187;-68
2022/04/12 00:59:35;;;;;;;9.87;5.27;;;2.90;99.90;;;;;;5025283;28;20344;-68
2022/04/12 01:02:05;;;;;;;7.40;4.93;;;2.90;99.90;;;;;;5024666;28;20191;-68
2022/04/12 01:04:32;;;;;;;6.40;4.90;;;2.90;99.90;;;;;;5025117;28;20217;-68
2022/04/12 01:06:58;;;;;;;8.33;4.93;;;3.10;99.90;;;;;;5024103;28;20193;-67
2022/04/12 01:09:27;;;;;;;8.00;5.97;;;3.20;99.90;;;;;;5007127;28;20211;-67
2022/04/12 01:11:57;;;;;;;7.87;5.37;;;3.10;99.90;;;;;;5024759;28;20548;-67
2022/04/12 01:14:25;;;;;;;7.60;5.40;;;3.00;99.90;;;;;;5025153;28;20186;-68
2022/04/12 01:16:51;;;;;;;7.90;5.57;;;2.90;99.90;;;;;;5024251;28;20553;-68
2022/04/12 01:19:18;;;;;;;9.47;6.80;;;2.80;99.90;;;;;;5024618;28;20665;-68
2022/04/12 01:22:04;;;;;;;9.17;6.27;;;2.70;99.90;;;;;;5024611;28;20187;-67
2022/04/12 01:24:32;;;;;;;9.70;7.17;;;2.60;99.90;;;;;;5025150;28;20203;-68
2022/04/12 01:26:58;;;;;;;9.50;6.63;;;2.50;99.90;;;;;;5024344;28;20265;-69
2022/04/12 01:29:24;;;;;;;9.77;6.30;;;2.60;99.90;;;;;;5024969;28;20293;-69
2022/04/12 01:31:51;;;;;;;10.83;6.43;;;2.50;99.90;;;;;;5024667;28;20240;-68
2022/04/12 01:34:16;;;;;;;9.37;6.53;;;2.50;99.90;;;;;;5024821;28;20197;-67
2022/04/12 01:36:42;;;;;;;9.73;6.80;;;2.50;99.90;;;;;;5024014;28;20198;-68
2022/04/12 01:39:07;;;;;;;8.20;6.53;;;2.50;99.90;;;;;;5006829;28;20750;-68
2022/04/12 01:41:33;;;;;;;7.77;5.90;;;2.50;99.90;;;;;;5024209;28;20277;-68
2022/04/12 01:43:59;;;;;;;8.57;5.97;;;2.50;99.90;;;;;;5024645;28;20213;-67
2022/04/12 01:46:24;;;;;;;9.20;6.10;;;2.60;99.90;;;;;;5023794;28;20278;-68
2022/04/12 01:48:50;;;;;;;9.47;5.97;;;2.60;99.90;;;;;;5024798;28;20297;-68
2022/04/12 01:51:16;;;;;;;8.50;5.67;;;2.70;99.90;;;;;;5024342;28;20182;-68
2022/04/12 01:53:42;;;;;;;8.20;6.00;;;2.60;99.90;;;;;;5022784;28;20805;-69
2022/04/12 01:56:08;;;;;;;8.43;5.60;;;2.60;99.90;;;;;;5022746;28;20198;-68
2022/04/12 01:58:35;;;;;;;6.43;5.33;;;2.60;99.90;;;;;;5023722;28;20255;-68
2022/04/12 02:01:02;;;;;;;7.03;5.70;;;2.60;99.90;;;;;;5005104;28;20615;-68
2022/04/12 02:03:27;;;;;;;7.40;5.03;;;2.60;99.90;;;;;;5022473;28;20203;-67
2022/04/12 02:05:54;;;;;;;8.07;5.17;;;2.60;99.90;;;;;;5024100;28;20573;-69
2022/04/12 02:08:20;;;;;;;7.40;4.93;;;2.60;99.90;;;;;;5023556;28;20662;-68
2022/04/12 02:10:46;;;;;;;7.67;5.13;;;2.50;99.90;;;;;;5006607;28;20760;-68
2022/04/12 02:13:12;;;;;;;7.10;5.27;;;2.60;99.90;;;;;;5006194;28;20321;-67
2022/04/12 02:15:37;;;;;;;11.07;5.57;;;2.60;99.90;;;;;;5023921;28;20236;-69
2022/04/12 02:18:03;;;;;;;6.83;5.20;;;2.50;99.90;;;;;;5022925;28;20195;-68
2022/04/12 02:20:29;;;;;;;7.53;5.67;;;2.50;99.90;;;;;;5023268;28;20191;-69
2022/04/12 02:22:54;;;;;;;7.03;4.73;;;2.50;99.90;;;;;;5023804;28;20202;-67
2022/04/12 02:25:20;;;;;;;6.63;4.83;;;2.50;99.90;;;;;;5024070;28;20187;-69
2022/04/12 02:27:46;;;;;;;7.50;5.20;;;2.40;99.90;;;;;;5022899;28;20183;-69
2022/04/12 02:30:15;;;;;;;6.53;5.07;;;2.30;99.90;;;;;;5023432;28;20634;-69
2022/04/12 02:32:41;;;;;;;7.47;4.63;;;2.30;99.90;;;;;;5025768;28;20178;-66
2022/04/12 02:35:08;;;;;;;8.43;4.77;;;2.30;99.90;;;;;;5028032;28;20191;-67
2022/04/12 02:37:33;;;;;;;7.27;4.73;;;2.30;99.90;;;;;;5026369;28;20202;-69
2022/04/12 02:39:59;;;;;;;6.97;4.70;;;2.40;99.90;;;;;;5027530;28;20231;-68
2022/04/12 02:42:25;;;;;;;5.87;4.37;;;2.40;99.90;;;;;;5027122;28;20237;-68
2022/04/12 02:44:50;;;;;;;6.03;4.10;;;2.40;99.90;;;;;;5009985;28;20265;-69
2022/04/12 02:47:16;;;;;;;6.57;3.87;;;2.40;99.90;;;;;;5026564;28;20645;-68
2022/04/12 02:49:42;;;;;;;5.97;3.80;;;2.50;99.90;;;;;;5009731;28;20215;-69
2022/04/12 02:52:10;;;;;;;7.17;4.50;;;2.60;99.90;;;;;;5009599;28;20206;-67
2022/04/12 02:54:36;;;;;;;5.70;3.70;;;2.70;99.90;;;;;;5027476;28;20187;-69
2022/04/12 02:57:01;;;;;;;4.47;3.83;;;2.70;99.90;;;;;;5008619;28;20716;-68
2022/04/12 02:59:30;;;;;;;8.27;4.30;;;2.60;99.90;;;;;;5009584;28;20210;-69
2022/04/12 03:01:56;;;;;;;6.33;4.07;;;2.40;99.90;;;;;;5026588;28;20206;-68
2022/04/12 03:04:21;;;;;;;5.67;4.03;;;2.20;99.90;;;;;;5027377;28;20210;-68
2022/04/12 03:06:47;;;;;;;6.77;4.50;;;2.10;99.90;;;;;;5026385;28;20187;-68
2022/04/12 03:09:12;;;;;;;5.60;3.97;;;2.10;99.90;;;;;;5027287;28;20202;-67
2022/04/12 03:11:39;;;;;;;8.13;4.83;;;2.00;99.90;;;;;;5026208;28;20198;-68
2022/04/12 03:14:05;;;;;;;6.70;4.47;;;2.00;99.90;;;;;;5025307;28;20195;-67
2022/04/12 03:16:31;;;;;;;6.43;4.00;;;2.00;99.90;;;;;;5025980;28;20182;-68
2022/04/12 03:18:56;;;;;;;5.63;4.10;;;2.10;99.90;;;;;;5025848;28;20210;-68
2022/04/12 03:21:22;;;;;;;5.23;3.97;;;2.10;99.90;;;;;;5026877;28;20191;-67
2022/04/12 03:23:47;;;;;;;6.40;3.97;;;2.20;99.90;;;;;;5026643;28;20674;-68
2022/04/12 03:26:13;;;;;;;5.73;4.07;;;2.20;99.90;;;;;;5026364;28;20183;-68
2022/04/12 03:28:39;;;;;;;6.90;4.20;;;2.20;99.90;;;;;;5025048;28;20219;-69
2022/04/12 03:31:04;;;;;;;6.63;4.40;;;2.20;99.90;;;;;;5008033;28;20607;-68
2022/04/12 03:33:30;;;;;;;5.17;4.20;;;2.20;99.90;;;;;;5026498;28;20218;-68
2022/04/12 03:35:55;;;;;;;5.37;4.27;;;2.10;99.90;;;;;;5026925;28;20613;-69
2022/04/12 03:38:21;;;;;;;4.97;4.00;;;2.10;99.90;;;;;;5025571;28;20230;-68
2022/04/12 03:40:47;;;;;;;5.60;4.33;;;2.10;99.90;;;;;;5026451;28;20265;-69
2022/04/12 03:43:13;;;;;;;5.77;4.17;;;2.10;99.90;;;;;;5026150;28;20206;-66
2022/04/12 03:45:39;;;;;;;5.40;4.40;;;2.00;99.90;;;;;;5026190;28;20179;-68
2022/04/12 03:48:06;;;;;;;5.83;3.90;;;2.10;99.90;;;;;;5025731;28;20175;-69
2022/04/12 03:50:34;;;;;;;4.70;3.80;;;2.00;99.90;;;;;;5008539;28;20186;-69
2022/04/12 03:53:01;;;;;;;5.27;4.10;;;2.10;99.90;;;;;;5026327;28;20617;-68
2022/04/12 03:55:30;;;;;;;6.47;3.93;;;2.00;99.90;;;;;;5026626;28;20183;-67
2022/04/12 03:58:01;;;;;;;4.33;3.77;;;2.00;99.90;;;;;;5025466;28;20199;-67
2022/04/12 04:00:28;;;;;;;6.23;4.30;;;1.90;99.90;;;;;;5008862;28;20175;-68
2022/04/12 04:02:54;;;;;;;6.30;4.30;;;1.90;99.90;;;;;;5026357;28;20618;-67
2022/04/12 04:05:20;;;;;;;5.27;4.17;;;1.90;99.90;;;;;;5026380;28;20764;-68
2022/04/12 04:07:46;;;;;;;6.63;4.50;;;1.90;99.90;;;;;;5024330;28;20642;-68
2022/04/12 04:10:12;;;;;;;6.00;4.40;;;1.90;99.90;;;;;;5025734;28;20281;-68
2022/04/12 04:12:37;;;;;;;6.27;4.20;;;1.80;99.90;;;;;;5025803;28;20541;-69
2022/04/12 04:15:05;;;;;;;7.60;4.63;;;1.80;99.90;;;;;;5008198;28;20179;-68
2022/04/12 04:17:31;;;;;;;5.17;4.03;;;2.00;99.90;;;;;;5025071;28;20185;-68
2022/04/12 04:19:57;;;;;;;5.73;4.50;;;2.10;99.90;;;;;;5025812;28;20666;-67
2022/04/12 04:22:23;;;;;;;6.83;4.47;;;2.20;99.90;;;;;;5025577;28;20183;-68
2022/04/12 04:24:49;;;;;;;10.77;4.73;;;2.20;99.90;;;;;;5026358;28;20219;-67
2022/04/12 04:27:16;;;;;;;9.17;4.70;;;2.30;99.90;;;;;;5023220;28;20206;-69
2022/04/12 04:29:42;;;;;;;6.33;4.73;;;2.30;99.90;;;;;;5025254;28;20210;-66
2022/04/12 04:32:08;;;;;;;7.53;4.60;;;2.20;99.90;;;;;;5025270;28;20183;-68
2022/04/12 04:34:33;;;;;;;7.57;4.70;;;2.30;99.90;;;;;;5025209;28;20539;-68
2022/04/12 04:36:59;;;;;;;5.70;4.50;;;2.20;99.90;;;;;;5024785;28;20232;-69
2022/04/12 04:39:25;;;;;;;7.80;4.53;;;2.20;99.90;;;;;;5024671;28;20615;-67
2022/04/12 04:41:50;;;;;;;7.97;4.70;;;2.20;99.90;;;;;;5025373;28;20194;-68
2022/04/12 04:44:16;;;;;;;5.30;4.53;;;2.30;99.90;;;;;;5024860;28;20358;-69
2022/04/12 04:46:42;;;;;;;8.53;5.57;;;2.30;99.90;;;;;;5024270;28;20187;-69
2022/04/12 04:49:08;;;;;;;6.13;4.40;;;2.40;99.90;;;;;;5025505;28;20305;-68
2022/04/12 04:51:35;;;;;;;6.73;4.43;;;2.40;99.90;;;;;;5024909;28;20183;-69
2022/04/12 04:54:01;;;;;;;8.47;5.07;;;2.50;99.90;;;;;;5019796;28;20276;-67
2022/04/12 04:56:28;;;;;;;6.07;4.00;;;2.60;99.90;;;;;;5002782;28;20666;-68
2022/04/12 04:58:54;;;;;;;5.37;4.13;;;2.70;99.90;;;;;;5022429;28;20566;-69
2022/04/12 05:01:20;;;;;;;6.50;4.80;;;2.70;99.90;;;;;;5022772;28;20252;-68
2022/04/12 05:03:47;;;;;;;6.53;4.07;;;2.80;99.90;;;;;;5022288;28;20203;-68
2022/04/12 05:06:13;;;;;;;5.93;4.40;;;3.00;99.90;;;;;;5022509;28;20201;-69
2022/04/12 05:08:39;;;;;;;5.80;4.10;;;3.10;99.90;;;;;;5021608;28;20245;-68
2022/04/12 05:11:04;;;;;;;7.27;4.13;;;3.20;99.90;;;;;;5022305;28;20198;-68
2022/04/12 05:13:30;;;;;;;4.87;4.00;;;3.20;99.90;;;;;;5020446;28;21452;-67
2022/04/12 05:15:56;;;;;;;5.40;4.13;;;3.30;99.90;;;;;;5022461;28;20397;-69
2022/04/12 05:18:21;;;;;;;5.93;4.27;;;3.40;99.90;;;;;;5001230;28;20222;-68
2022/04/12 05:20:47;;;;;;;6.03;4.63;;;3.50;99.90;;;;;;5022151;28;20217;-68
2022/04/12 05:23:13;;;;;;;5.43;4.20;;;3.60;99.90;;;;;;5022405;28;20202;-68
2022/04/12 05:25:38;;;;;;;7.80;4.33;;;3.70;99.90;;;;;;5022110;28;20187;-67
2022/04/12 05:28:04;;;;;;;5.00;3.97;;;3.80;99.90;;;;;;5021118;28;20183;-68
2022/04/12 05:30:31;;;;;;;6.50;4.57;;;3.90;99.90;;;;;;5022094;28;20253;-67
2022/04/12 05:32:57;;;;;;;6.30;4.30;;;4.10;99.90;;;;;;5004055;28;20183;-68
2022/04/12 05:35:23;;;;;;;4.60;3.67;;;4.30;99.90;;;;;;5004099;28;20181;-67
2022/04/12 05:37:52;;;;;;;4.97;3.53;;;4.50;99.90;;;;;;5020928;28;20182;-69
2022/04/12 05:40:18;;;;;;;5.20;4.00;;;4.80;99.90;;;;;;5021603;28;20670;-68
2022/04/12 05:42:44;;;;;;;5.50;3.87;;;5.10;99.90;;;;;;5004031;28;20570;-68
2022/04/12 05:45:11;;;;;;;6.10;4.53;;;5.30;99.90;;;;;;5021047;28;20693;-69
2022/04/12 05:47:49;;;;;;;6.20;3.83;;;5.30;99.90;;;;;;5021325;28;20190;-68
2022/04/12 05:50:15;;;;;;;4.87;3.73;;;5.40;99.90;;;;;;5020643;28;20511;-69
2022/04/12 05:52:42;;;;;;;5.60;3.90;;;5.50;99.90;;;;;;5021967;28;20205;-68
2022/04/12 05:55:11;;;;;;;6.07;3.50;;;5.60;99.90;;;;;;5022727;28;20559;-68
2022/04/12 05:57:38;;;;;;;6.23;4.07;;;5.70;99.90;;;;;;5021201;28;20209;-69
2022/04/12 06:00:06;;;;;;;3.93;3.40;;;5.80;99.90;;;;;;5020969;28;20230;-68
2022/04/12 06:02:33;;;;;;;4.33;3.53;;;5.80;99.90;;;;;;5016425;28;20279;-68
2022/04/12 06:04:58;;;;;;;4.97;3.63;;;5.90;99.90;;;;;;5018718;28;20203;-69
2022/04/12 06:07:32;;;;;;;5.20;3.93;;;6.00;99.90;;;;;;5022527;28;20179;-69
2022/04/12 06:10:02;;;;;;;6.23;3.87;;;6.20;99.90;;;;;;5022949;28;20264;-69
2022/04/12 06:12:28;;;;;;;5.57;3.60;;;6.10;99.90;;;;;;5022078;28;20266;-68
2022/04/12 06:14:55;;;;;;;4.20;3.63;;;6.30;99.90;;;;;;5023339;28;20269;-68
2022/04/12 06:17:21;;;;;;;4.53;3.50;;;6.40;99.90;;;;;;5005210;28;20197;-69
2022/04/12 06:19:47;;;;;;;4.47;3.33;;;6.70;99.90;;;;;;5007188;28;20246;-69
2022/04/12 06:22:13;;;;;;;4.67;4.00;;;6.90;99.90;;;;;;5023115;28;20325;-69
2022/04/12 06:24:39;;;;;;;9.20;3.90;;;7.20;99.90;;;;;;5024174;28;20268;-68
2022/04/12 06:27:05;;;;;;;5.53;3.70;;;7.50;99.90;;;;;;5006016;28;20638;-69
2022/04/12 06:29:32;;;;;;;5.10;3.67;;;7.60;99.90;;;;;;5024904;28;20198;-70
2022/04/12 06:31:58;;;;;;;4.23;3.57;;;7.60;99.90;;;;;;5023926;28;20214;-69
2022/04/12 06:34:23;;;;;;;4.70;3.53;;;7.70;99.90;;;;;;5024216;28;20613;-67
2022/04/12 06:36:49;;;;;;;5.93;3.37;;;7.70;99.90;;;;;;5006214;28;20206;-69
2022/04/12 06:39:15;;;;;;;4.37;3.60;;;7.70;99.90;;;;;;5023065;28;20718;-70
2022/04/12 06:41:40;;;;;;;6.63;4.17;;;7.60;99.90;;;;;;5024768;28;20186;-69
2022/04/12 06:44:06;;;;;;;4.67;3.60;;;7.50;99.90;;;;;;5024190;28;20207;-69
2022/04/12 06:46:32;;;;;;;4.53;3.70;;;7.60;99.90;;;;;;5023850;28;20337;-70
2022/04/12 06:48:57;;;;;;;5.87;3.73;;;7.60;99.90;;;;;;5024243;28;20249;-68
2022/04/12 06:51:23;;;;;;;4.93;4.00;;;7.70;99.90;;;;;;5024655;28;20179;-69
2022/04/12 06:53:50;;;;;;;4.87;3.60;;;7.70;99.90;;;;;;5024099;28;20183;-68
2022/04/12 06:56:16;;;;;;;5.30;3.90;;;7.80;99.90;;;;;;5023597;28;20607;-69
2022/04/12 06:58:42;;;;;;;7.03;4.20;;;8.00;99.90;;;;;;5023535;28;20253;-69
2022/04/12 07:01:09;;;;;;;4.70;3.67;;;8.10;99.90;;;;;;5024020;28;20190;-69
2022/04/12 07:03:35;;;;;;;4.87;4.10;;;8.20;99.90;;;;;;5006986;28;20207;-70
2022/04/12 07:06:01;;;;;;;5.17;3.73;;;8.20;99.90;;;;;;5024556;28;20210;-68
2022/04/12 07:08:26;;;;;;;6.70;4.00;;;8.10;99.90;;;;;;5022269;28;20211;-69
2022/04/12 07:10:52;;;;;;;5.70;4.33;;;8.10;99.90;;;;;;5019325;28;20189;-68
2022/04/12 07:13:19;;;;;;;6.73;4.80;;;8.00;99.90;;;;;;5022028;28;20619;-69
2022/04/12 07:15:46;;;;;;;5.10;4.00;;;7.80;99.90;;;;;;5022902;28;20187;-69
2022/04/12 07:18:12;;;;;;;5.57;3.93;;;7.80;99.90;;;;;;5018716;28;20211;-69
2022/04/12 07:20:37;;;;;;;5.00;4.17;;;8.00;99.90;;;;;;5003107;28;20639;-68
2022/04/12 07:23:03;;;;;;;5.27;3.57;;;8.10;99.90;;;;;;5023251;28;20182;-69
2022/04/12 07:25:29;;;;;;;5.33;4.00;;;8.30;99.90;;;;;;5023329;28;20176;-69
2022/04/12 07:27:54;;;;;;;4.83;4.03;;;8.50;99.90;;;;;;5004636;28;20227;-69
2022/04/12 07:30:20;;;;;;;6.93;4.20;;;8.80;99.90;;;;;;5023101;28;20265;-69
2022/04/12 07:32:46;;;;;;;4.87;4.00;;;9.00;99.90;;;;;;5018570;28;20560;-67
2022/04/12 07:35:12;;;;;;;4.80;4.10;;;9.20;99.90;;;;;;5021500;28;20187;-67
2022/04/12 07:37:42;;;;;;;5.33;4.00;;;9.40;99.90;;;;;;5020373;28;20669;-70
2022/04/12 07:40:09;;;;;;;4.70;3.97;;;9.50;99.90;;;;;;5021737;28;20301;-70
2022/04/12 07:42:35;;;;;;;5.43;3.77;;;9.70;99.90;;;;;;5025411;28;20191;-67
2022/04/12 07:45:01;;;;;;;4.80;4.30;;;9.70;99.90;;;;;;5004388;28;20238;-68
2022/04/12 07:47:26;;;;;;;4.63;4.23;;;9.80;99.90;;;;;;5002396;28;20191;-70
2022/04/12 07:49:52;;;;;;;4.60;3.87;;;9.90;99.90;;;;;;5021765;28;20318;-69
2022/04/12 07:52:18;;;;;;;5.00;4.30;;;9.80;99.90;;;;;;5019442;28;20185;-69
2022/04/12 07:54:43;;;;;;;5.53;4.10;;;10.00;99.90;;;;;;5020274;28;20190;-70
2022/04/12 07:57:09;;;;;;;4.30;3.90;;;10.10;99.90;;;;;;5019334;28;20762;-70
2022/04/12 07:59:34;;;;;;;5.57;4.00;;;10.30;99.90;;;;;;5001659;28;20217;-69
2022/04/12 08:02:00;;;;;;;4.80;3.93;;;10.40;99.90;;;;;;5025390;28;20526;-69
2022/04/12 08:04:26;;;;;;;5.17;4.20;;;10.40;99.90;;;;;;5024242;28;20242;-69
2022/04/12 08:06:51;;;;;;;4.70;3.67;;;10.40;99.90;;;;;;5020636;28;20229;-69
2022/04/12 08:09:17;;;;;;;4.03;3.57;;;10.30;99.90;;;;;;5019584;28;20740;-70
2022/04/12 08:11:43;;;;;;;4.27;3.60;;;10.30;99.90;;;;;;5018698;28;20658;-69
2022/04/12 08:14:08;;;;;;;4.83;4.07;;;10.40;99.90;;;;;;5000392;28;20186;-70
2022/04/12 08:16:34;;;;;;;5.63;3.90;;;10.60;99.90;;;;;;5020900;28;20199;-70
2022/04/12 08:18:59;;;;;;;5.27;3.70;;;10.70;99.90;;;;;;5019332;28;20575;-69
2022/04/12 08:21:31;;;;;;;5.60;3.83;;;10.70;99.90;;;;;;5003956;28;20191;-70
2022/04/12 08:23:57;;;;;;;4.07;3.63;;;10.80;99.90;;;;;;5020935;28;20278;-68
2022/04/12 08:26:24;;;;;;;4.20;3.57;;;10.90;99.90;;;;;;5021108;28;20217;-69
2022/04/12 08:28:49;;;;;;;3.60;3.20;;;11.10;99.90;;;;;;5020309;28;20203;-70
2022/04/12 08:31:15;;;;;;;4.13;3.30;;;11.00;99.90;;;;;;5020875;28;20241;-69
2022/04/12 08:33:40;;;;;;;4.80;3.73;;;11.00;99.90;;;;;;5021492;28;20195;-69
2022/04/12 08:36:06;;;;;;;4.40;3.77;;;11.10;99.90;;;;;;5021890;28;20579;-69
2022/04/12 08:38:31;;;;;;;6.43;3.37;;;11.20;99.90;;;;;;5020078;28;20313;-70
2022/04/12 08:41:00;;;;;;;6.07;3.63;;;11.50;99.90;;;;;;5020299;28;20198;-71
2022/04/12 08:43:28;;;;;;;4.57;3.70;;;11.90;99.90;;;;;;5021507;28;20685;-69
2022/04/12 08:45:55;;;;;;;3.85;3.47;;;12.10;99.90;;;;;;5003998;28;20187;-71
2022/04/12 08:48:21;;;;;;;4.07;3.47;;;12.20;99.90;;;;;;5021267;28;20203;-71
2022/04/12 08:50:48;;;;;;;4.32;3.80;;;12.20;99.90;;;;;;5022494;28;20222;-70
2022/04/12 08:53:15;;;;;;;4.77;3.63;;;12.10;99.90;;;;;;5020582;28;20665;-69
2022/04/12 08:55:41;;;;;;;5.47;3.80;;;12.00;99.90;;;;;;5019903;28;20201;-70
2022/04/12 08:58:07;;;;;;;4.00;3.38;;;12.00;99.90;;;;;;5018652;28;20642;-69
2022/04/12 09:00:32;;;;;;;4.25;3.80;;;12.10;99.90;;;;;;5003498;28;20198;-70
2022/04/12 09:02:59;;;;;;;4.40;4.00;;;12.30;99.90;;;;;;5022117;28;20303;-69
2022/04/12 09:05:25;;;;;;;3.97;3.60;;;12.50;99.90;;;;;;5021622;28;20203;-70
2022/04/12 09:07:51;;;;;;;12.30;4.53;;;12.40;99.90;;;;;;5019487;28;20187;-70
2022/04/12 09:10:19;;;;;;;9.55;4.30;;;12.60;99.90;;;;;;5019385;28;20271;-70
2022/04/12 09:12:45;;;;;;;4.82;3.95;;;12.80;99.90;;;;;;5018765;28;20446;-69
2022/04/12 09:15:12;;;;;;;5.55;3.88;;;12.70;99.90;;;;;;5020625;28;20170;-70
2022/04/12 09:17:41;;;;;;;5.97;4.35;;;12.80;99.90;;;;;;5020837;28;20240;-69
2022/04/12 09:20:19;;;;;;;4.95;3.67;;;12.90;99.90;;;;;;5021714;28;20269;-69
2022/04/12 09:22:46;;;;;;;4.68;3.67;;;12.90;99.90;;;;;;5020813;28;20630;-69
2022/04/12 09:25:14;;;;;;;4.72;4.07;;;12.90;99.90;;;;;;5021831;28;20199;-70
2022/04/12 09:27:44;;;;;;;4.45;4.05;;;12.80;99.90;;;;;;5020853;28;20261;-69
2022/04/12 09:30:12;;;;;;;4.72;3.95;;;12.90;99.90;;;;;;5021376;28;20677;-70
2022/04/12 09:32:45;;;;;;;5.15;3.58;;;13.10;99.90;;;;;;5019944;28;20210;-69
2022/04/12 09:35:10;;;;;;;4.97;3.90;;;13.20;99.90;;;;;;5003605;28;20191;-70
2022/04/12 09:37:38;;;;;;;4.85;4.00;;;13.20;99.90;;;;;;5019173;28;20189;-71
2022/04/12 09:40:11;;;;;;;5.65;4.00;;;13.30;99.90;;;;;;5018977;28;20229;-70
2022/04/12 09:43:13;;;;;;;4.28;3.85;;;13.40;99.90;;;;;;5020608;28;20194;-70
2022/04/12 09:45:43;;;;;;;6.07;3.85;;;13.60;99.90;;;;;;4938675;28;20775;-70
2022/04/12 09:48:09;;;;;;;4.85;3.60;;;13.70;99.90;;;;;;4987246;28;20195;-70
2022/04/12 09:50:35;;;;;;;3.47;3.17;;;13.90;99.90;;;;;;5018376;28;20185;-69
2022/04/12 09:53:03;;;;;;;5.25;3.60;;;14.00;99.90;;;;;;5002459;28;20996;-71
2022/04/12 09:55:37;;;;;;;4.75;3.78;;;14.10;99.90;;;;;;5020658;28;20203;-69
2022/04/12 09:58:04;;;;;;;9.13;3.85;;;14.40;99.90;;;;;;5018956;28;20237;-70
2022/04/12 10:00:30;;;;;;;4.93;4.00;;;14.50;99.90;;;;;;5020313;28;20265;-69
2022/04/12 10:03:02;;;;;;;5.00;3.35;;;14.60;99.90;;;;;;5003422;28;20664;-70
2022/04/12 10:05:28;;;;;;;5.10;3.83;;;14.70;99.90;;;;;;5002606;28;20220;-70
2022/04/12 10:07:59;;;;;;;4.60;3.38;;;14.90;99.90;;;;;;5018996;28;20230;-70
2022/04/12 10:10:26;;;;;;;4.38;3.40;;;15.10;99.90;;;;;;5019687;28;20179;-69
2022/04/12 10:12:56;;;;;;;3.53;3.22;;;15.30;99.90;;;;;;5018094;28;20191;-69
2022/04/12 10:15:23;;;;;;;3.97;3.58;;;15.20;99.90;;;;;;5020638;28;20187;-70
2022/04/12 10:17:49;;;;;;;4.13;3.72;;;15.10;99.90;;;;;;5020513;28;20380;-70
2022/04/12 10:20:18;;;;;;;3.60;3.30;;;15.20;99.90;;;;;;5002144;28;20206;-70
2022/04/12 10:22:44;;;;;;;3.60;3.17;;;15.30;99.90;;;;;;5020755;28;20191;-70
2022/04/12 10:25:15;;;;;;;3.90;3.50;;;15.50;99.90;;;;;;5001846;28;20298;-70
2022/04/12 10:27:41;;;;;;;4.82;3.10;;;15.50;99.90;;;;;;5020373;28;20229;-71
2022/04/12 10:30:16;;;;;;;3.17;2.88;;;15.60;99.00;;;;;;5020120;28;20203;-69
2022/04/12 10:33:14;;;;;;;5.07;3.10;;;15.50;98.00;;;;;;5021460;28;20193;-70
2022/04/12 10:35:46;;;;;;;5.18;3.15;;;15.30;98.30;;;;;;4976402;28;20207;-70
2022/04/12 10:38:16;;;;;;;3.47;2.80;;;15.50;99.70;;;;;;5017371;28;20238;-70
2022/04/12 10:40:47;;;;;;;4.38;3.00;;;15.60;97.20;;;;;;5020031;28;20210;-69
2022/04/12 10:43:22;;;;;;;4.63;3.17;;;15.70;97.40;;;;;;5022536;28;20187;-69
2022/04/12 10:45:50;;;;;;;3.75;2.97;;;16.00;97.90;;;;;;5022909;28;20179;-70
2022/04/12 10:48:34;;;;;;;3.35;2.70;;;16.00;97.50;;;;;;5021445;28;20211;-70
2022/04/12 10:51:02;;;;;;;3.33;2.92;;;16.20;97.30;;;;;;5023259;28;20183;-70
2022/04/12 10:53:54;;;;;;;6.13;3.03;;;16.20;95.30;;;;;;5025379;28;20205;-69
2022/04/12 10:56:24;;;;;;;6.40;3.22;;;16.20;95.50;;;;;;5015937;28;20666;-69
2022/04/12 10:58:49;;;;;;;4.50;2.80;;;16.30;94.70;;;;;;5027173;28;20694;-70
2022/04/12 11:01:35;;;;;;;2.95;2.67;;;16.30;95.70;;;;;;5027705;28;20193;-70
2022/04/12 11:04:05;;;;;;;3.30;3.00;;;16.40;95.70;;;;;;5026880;28;20281;-69
2022/04/12 11:06:32;;;;;;;4.30;3.25;;;16.30;95.80;;;;;;5026566;28;20270;-70
2022/04/12 11:09:11;;;;;;;5.38;3.10;;;16.40;94.20;;;;;;5026853;28;20621;-70
2022/04/12 11:11:40;;;;;;;3.72;3.33;;;16.50;93.70;;;;;;5009272;28;20283;-70
2022/04/12 11:14:32;;;;;;;3.45;2.92;;;16.50;93.90;;;;;;5009184;28;20191;-70
2022/04/12 11:17:03;;;;;;;3.28;2.97;;;16.50;94.30;;;;;;5025983;28;20190;-70
2022/04/12 11:19:54;;;;;;;3.78;3.42;;;16.50;93.90;;;;;;5006091;28;20206;-69
2022/04/12 11:22:21;;;;;;;4.75;3.30;;;16.60;94.40;;;;;;5026475;28;20225;-70
2022/04/12 11:25:15;;;;;;;3.00;2.80;;;16.70;91.50;;;;;;5026601;28;20666;-68
2022/04/12 11:27:41;;;;;;;3.92;3.17;;;16.70;91.40;;;;;;5026304;28;20171;-70
2022/04/12 11:30:08;;;;;;;3.80;3.40;;;16.80;90.70;;;;;;5026996;28;20202;-70
2022/04/12 11:32:34;;;;;;;4.18;2.88;;;16.90;86.50;;;;;;5025869;28;20212;-70
2022/04/12 11:35:00;;;;;;;3.70;2.40;;;16.90;86.80;;;;;;5026486;28;20210;-70
2022/04/12 11:37:26;;;;;;;5.20;2.83;;;16.90;83.70;;;;;;5025168;28;20193;-69
2022/04/12 11:39:51;;;;;;;4.65;3.13;;;17.10;87.20;;;;;;5026207;28;20218;-70
2022/04/12 11:42:17;;;;;;;2.50;2.30;;;17.20;83.80;;;;;;5008215;28;20692;-70
2022/04/12 11:44:54;;;;;;;4.88;2.80;;;17.20;81.10;;;;;;5025572;28;20198;-68
2022/04/12 11:47:26;;;;;;;3.25;2.95;;;17.30;80.00;;;;;;5024473;28;20215;-69
2022/04/12 11:49:51;;;;;;;3.05;2.75;;;17.10;79.50;;;;;;5028736;28;20560;-68
2022/04/12 11:52:17;;;;;;;3.03;2.65;;;17.30;79.80;;;;;;5025203;28;20186;-69
2022/04/12 11:54:47;;;;;;;3.88;2.70;;;17.30;78.80;;;;;;5024682;28;20284;-68
2022/04/12 11:57:21;;;;;;;2.75;2.55;;;17.40;79.50;;;;;;5024735;28;20180;-68
2022/04/12 12:00:00;;;;;;;2.92;2.55;;;17.60;80.20;;;;;;5025645;28;20237;-69
2022/04/12 12:02:30;;;;;;;3.60;2.63;;;17.70;77.60;;;;;;5025877;28;20185;-69
2022/04/12 12:05:03;;;;;;;2.80;2.45;;;17.70;73.00;;;;;;5025871;28;20297;-69
2022/04/12 12:07:29;;;;;;;3.35;2.83;;;17.60;74.70;;;;;;5006967;28;20178;-69
2022/04/12 12:10:04;;;;;;;2.72;2.53;;;17.60;73.80;;;;;;5025959;28;20210;-70
2022/04/12 12:12:41;;;;;;;3.75;2.65;;;17.70;72.10;;;;;;5026060;28;20205;-70
2022/04/12 12:15:27;;;;;;;2.53;2.33;;;17.80;72.90;;;;;;5008445;28;20194;-70
2022/04/12 12:17:55;;;;;;;2.85;2.38;;;17.90;71.10;;;;;;5024917;28;20201;-70
2022/04/12 12:20:23;;;;;;;3.10;2.80;;;17.90;71.50;;;;;;5025953;28;20279;-69
2022/04/12 12:22:51;;;;;;;2.97;2.67;;;17.90;72.90;;;;;;5008106;28;20209;-69
2022/04/12 12:25:21;;;;;;;3.38;2.90;;;17.90;73.10;;;;;;5024337;28;20221;-70
2022/04/12 12:27:52;;;;;;;3.13;2.58;;;17.80;70.40;;;;;;5024861;28;20232;-69
2022/04/12 12:30:20;;;;;;;4.00;2.70;;;18.00;72.50;;;;;;5024839;28;20183;-69
2022/04/12 12:32:50;;;;;;;4.28;3.13;;;18.10;71.70;;;;;;5007665;28;20223;-69
2022/04/12 12:35:17;;;;;;;3.47;3.03;;;18.10;70.80;;;;;;5025615;28;20171;-69
2022/04/12 12:37:45;;;;;;;4.47;3.03;;;18.00;71.30;;;;;;5024615;28;20186;-70
2022/04/12 12:40:37;;;;;;;4.22;3.63;;;18.10;69.90;;;;;;5024742;28;20205;-69
2022/04/12 12:43:09;;;;;;;3.28;2.95;;;18.10;70.80;;;;;;5021388;28;20847;-69
2022/04/12 12:45:39;;;;;;;3.40;3.10;;;18.10;69.90;;;;;;5024736;28;20218;-69
2022/04/12 12:48:07;;;;;;;3.40;2.92;;;18.20;73.30;;;;;;5024325;28;20240;-69
2022/04/12 12:50:36;;;;;;;4.43;3.28;;;18.20;68.70;;;;;;5025286;28;20210;-68
2022/04/12 12:53:03;;;;;;;4.55;3.00;;;18.10;67.20;;;;;;5025119;28;20289;-68
2022/04/12 12:55:59;;;;;;;4.53;3.33;;;18.10;66.60;;;;;;5007669;28;20194;-69
2022/04/12 12:58:29;;;;;;;3.85;2.90;;;18.00;67.50;;;;;;5010092;28;20643;-69